Time;durP1;ratioP1;P1;durP2;ratioP2;P2;SDS_P1;SDS_P2;PMS_P1;PMS_P2;Temp;Humidity;BMP_temperature;BMP_pressure;BME280_temperature;BME280_humidity;BME280_pressure;Samples;Min_cycle;Max_cycle;Signal;HPM_P1;HPM_P2
2021/12/24 00:00:16;;;;;;;6.93;5.15;;;17.20;39.00;;;;;;5037121;28;20180;-65
2021/12/24 00:02:45;;;;;;;6.63;4.93;;;17.20;39.10;;;;;;5019469;28;20200;-69
2021/12/24 00:05:12;;;;;;;6.50;5.28;;;17.20;39.10;;;;;;5018962;28;20230;-70
2021/12/24 00:07:39;;;;;;;7.90;5.30;;;17.10;39.10;;;;;;5036603;28;20208;-67
2021/12/24 00:10:08;;;;;;;7.45;5.07;;;17.10;39.20;;;;;;5035406;28;20596;-68
2021/12/24 00:12:38;;;;;;;6.22;4.97;;;17.10;39.30;;;;;;5018819;28;20196;-68
2021/12/24 00:15:20;;;;;;;6.25;4.65;;;17.10;39.30;;;;;;5037676;28;20605;-68
2021/12/24 00:17:48;;;;;;;6.68;5.05;;;17.10;39.40;;;;;;5018696;28;20204;-68
2021/12/24 00:20:41;;;;;;;5.97;4.72;;;17.10;39.40;;;;;;5035140;28;20218;-69
2021/12/24 00:35:05;;;;;;;6.55;4.72;;;17.00;39.40;;;;;;5036274;28;20183;-69
2021/12/24 00:37:16;;;;;;;6.18;4.55;;;17.00;39.60;;;;;;5018403;28;20223;-69
2021/12/24 00:39:50;;;;;;;6.25;4.47;;;16.90;39.50;;;;;;5034648;28;20196;-70
2021/12/24 00:42:17;;;;;;;5.47;4.53;;;16.90;39.60;;;;;;5035009;28;20660;-66
2021/12/24 00:44:44;;;;;;;6.15;4.97;;;16.90;39.70;;;;;;5034684;28;20303;-70
2021/12/24 00:47:11;;;;;;;5.45;4.40;;;16.90;39.70;;;;;;5018095;28;20316;-68
2021/12/24 00:49:40;;;;;;;7.00;4.53;;;16.80;39.70;;;;;;5034603;28;20220;-68
2021/12/24 00:52:19;;;;;;;7.25;5.00;;;16.80;39.70;;;;;;5017917;28;20729;-70
2021/12/24 00:55:06;;;;;;;4.95;4.00;;;16.80;40.40;;;;;;5034944;28;20556;-69
2021/12/24 00:57:34;;;;;;;5.07;4.47;;;16.80;39.80;;;;;;5017701;28;20691;-67
2021/12/24 01:00:01;;;;;;;4.78;4.28;;;16.80;39.90;;;;;;5017538;28;20200;-70
2021/12/24 01:02:28;;;;;;;5.43;4.30;;;16.70;39.80;;;;;;5017650;28;20228;-69
2021/12/24 01:04:57;;;;;;;5.03;4.38;;;16.70;39.90;;;;;;5034162;28;20192;-66
2021/12/24 01:07:24;;;;;;;4.53;3.97;;;16.70;39.90;;;;;;5017468;28;20212;-67
2021/12/24 01:09:51;;;;;;;6.05;4.70;;;16.70;39.90;;;;;;5017989;28;20295;-69
2021/12/24 01:12:18;;;;;;;5.68;4.10;;;16.60;39.90;;;;;;5034868;28;20195;-69
2021/12/24 01:14:47;;;;;;;5.85;4.57;;;16.60;39.90;;;;;;5018382;28;20200;-68
2021/12/24 01:17:26;;;;;;;4.25;3.85;;;16.60;39.90;;;;;;5035381;28;20215;-67
2021/12/24 01:19:58;;;;;;;5.65;4.03;;;16.60;40.00;;;;;;5034146;28;20192;-69
2021/12/24 01:25:18;;;;;;;4.60;4.18;;;16.60;40.00;;;;;;4991384;28;20227;-67
2021/12/24 01:28:04;;;;;;;7.20;4.53;;;16.60;40.00;;;;;;5035221;28;20222;-66
2021/12/24 01:38:59;;;;;;;4.95;4.43;;;16.60;40.10;;;;;;5017611;28;20649;-67
2021/12/24 01:44:11;;;;;;;4.25;3.67;;;16.50;40.20;;;;;;5016496;28;20196;-68
2021/12/24 01:46:38;;;;;;;6.45;4.13;;;16.50;40.20;;;;;;5034730;28;20220;-67
2021/12/24 01:49:05;;;;;;;4.78;4.03;;;16.50;40.20;;;;;;5018162;28;20200;-67
2021/12/24 01:51:33;;;;;;;4.90;4.05;;;16.50;40.20;;;;;;5035589;28;20234;-69
2021/12/24 01:54:02;;;;;;;4.53;3.70;;;16.50;40.20;;;;;;5034366;28;20192;-67
2021/12/24 01:56:29;;;;;;;4.07;3.67;;;16.40;40.20;;;;;;5034287;28;20216;-67
2021/12/24 01:58:57;;;;;;;4.38;3.95;;;16.40;40.20;;;;;;5018013;28;20648;-67
2021/12/24 02:01:27;;;;;;;4.57;3.80;;;16.40;40.20;;;;;;5034458;28;20188;-69
2021/12/24 02:03:54;;;;;;;4.80;4.00;;;16.40;40.30;;;;;;5017976;28;20196;-68
2021/12/24 02:06:21;;;;;;;5.63;3.90;;;16.40;40.30;;;;;;5034518;28;20212;-68
2021/12/24 02:08:48;;;;;;;4.65;4.03;;;16.40;40.40;;;;;;5034308;28;20224;-68
2021/12/24 02:11:17;;;;;;;6.03;4.00;;;16.40;40.40;;;;;;5035247;28;20763;-69
2021/12/24 02:13:44;;;;;;;4.20;3.80;;;16.40;40.40;;;;;;5017454;28;20250;-70
2021/12/24 02:16:21;;;;;;;3.92;3.58;;;16.40;40.40;;;;;;5034027;28;20228;-67
2021/12/24 02:29:51;;;;;;;4.38;3.70;;;16.30;40.50;;;;;;5017298;28;20265;-67
2021/12/24 02:32:18;;;;;;;4.10;3.67;;;16.30;40.60;;;;;;5034600;28;20200;-70
2021/12/24 02:34:45;;;;;;;3.60;3.30;;;16.20;40.50;;;;;;5034567;28;20570;-68
2021/12/24 02:37:14;;;;;;;4.10;3.67;;;16.30;40.60;;;;;;5036657;28;20566;-66
2021/12/24 02:39:41;;;;;;;4.80;3.63;;;16.30;40.60;;;;;;5017070;28;20287;-69
2021/12/24 02:42:13;;;;;;;4.47;3.60;;;16.30;40.60;;;;;;5034451;28;20200;-70
2021/12/24 02:44:40;;;;;;;3.88;3.47;;;16.20;40.60;;;;;;5035131;28;20271;-68
2021/12/24 02:47:15;;;;;;;4.10;3.70;;;16.20;40.70;;;;;;5017410;28;20834;-67
2021/12/24 02:55:20;;;;;;;3.72;3.38;;;16.20;40.80;;;;;;4996652;28;20339;-68
2021/12/24 02:57:49;;;;;;;4.00;3.60;;;16.20;40.80;;;;;;5016847;28;20283;-69
2021/12/24 03:00:19;;;;;;;4.97;3.53;;;16.20;40.80;;;;;;5032834;28;20224;-67
2021/12/24 03:02:47;;;;;;;4.63;3.70;;;16.20;40.80;;;;;;5016340;28;20273;-69
2021/12/24 03:05:15;;;;;;;4.78;3.42;;;16.10;40.80;;;;;;5034137;28;20680;-69
2021/12/24 03:07:44;;;;;;;3.38;2.80;;;16.10;40.90;;;;;;5032904;28;20201;-67
2021/12/24 03:10:14;;;;;;;4.13;3.60;;;16.10;40.80;;;;;;5033925;28;20282;-67
2021/12/24 03:12:45;;;;;;;4.35;3.38;;;16.10;40.90;;;;;;5017190;28;20242;-68
2021/12/24 03:15:12;;;;;;;3.60;3.30;;;16.10;40.90;;;;;;5032604;28;20208;-67
2021/12/24 03:17:45;;;;;;;4.03;3.15;;;16.10;40.90;;;;;;5015843;28;20222;-70
2021/12/24 03:20:12;;;;;;;3.95;3.25;;;16.10;41.00;;;;;;5033972;28;20176;-69
2021/12/24 03:22:47;;;;;;;3.60;3.28;;;16.10;41.00;;;;;;5032408;28;20195;-67
2021/12/24 03:25:16;;;;;;;3.75;3.38;;;16.10;41.10;;;;;;5032477;28;20219;-67
2021/12/24 03:27:44;;;;;;;3.20;2.90;;;16.10;41.10;;;;;;5032213;28;20222;-69
2021/12/24 03:30:13;;;;;;;3.47;3.17;;;16.10;41.10;;;;;;5015646;28;20216;-69
2021/12/24 03:32:40;;;;;;;3.53;3.22;;;16.10;41.10;;;;;;5032526;28;20675;-66
2021/12/24 03:35:07;;;;;;;3.38;2.95;;;16.10;41.10;;;;;;5032143;28;20195;-67
2021/12/24 03:37:35;;;;;;;4.03;3.33;;;16.10;41.70;;;;;;5015490;28;20266;-66
2021/12/24 03:40:05;;;;;;;3.50;3.20;;;16.10;41.20;;;;;;5032176;28;20188;-70
2021/12/24 03:42:37;;;;;;;3.47;3.17;;;16.00;41.10;;;;;;5016565;28;20283;-69
2021/12/24 03:45:19;;;;;;;3.30;3.00;;;16.00;41.10;;;;;;5033341;28;20191;-69
2021/12/24 03:47:53;;;;;;;3.88;3.47;;;16.00;41.10;;;;;;5031730;28;20254;-68
2021/12/24 03:50:20;;;;;;;3.40;3.10;;;16.00;41.10;;;;;;5031728;28;20222;-66
2021/12/24 03:53:03;;;;;;;3.78;3.20;;;16.00;41.20;;;;;;5032224;28;20196;-69
2021/12/24 03:55:29;;;;;;;3.80;3.00;;;16.00;41.20;;;;;;5031641;28;20287;-70
2021/12/24 03:57:57;;;;;;;3.60;3.00;;;16.00;41.10;;;;;;5015471;28;20287;-67
2021/12/24 04:00:44;;;;;;;3.55;3.25;;;16.00;41.20;;;;;;5032859;28;20188;-68
2021/12/24 04:03:22;;;;;;;3.22;2.92;;;16.00;41.20;;;;;;5033212;28;20263;-67
2021/12/24 04:06:08;;;;;;;3.40;3.10;;;16.00;41.20;;;;;;5032992;28;20302;-69
2021/12/24 04:08:54;;;;;;;3.30;3.00;;;16.00;41.20;;;;;;5032804;28;20505;-68
2021/12/24 04:11:45;;;;;;;3.08;2.80;;;16.00;41.30;;;;;;5014857;28;20209;-70
2021/12/24 04:14:13;;;;;;;3.00;2.80;;;16.00;41.30;;;;;;5031522;28;20199;-68
2021/12/24 04:16:41;;;;;;;3.28;2.97;;;16.00;41.30;;;;;;5015361;28;20224;-68
2021/12/24 04:24:56;;;;;;;3.10;2.80;;;15.90;41.40;;;;;;4952410;29;20246;-67
2021/12/24 04:27:25;;;;;;;3.35;3.03;;;15.90;41.40;;;;;;4936539;29;20263;-66
2021/12/24 04:30:02;;;;;;;3.05;2.80;;;15.90;41.50;;;;;;4975212;28;20292;-69
2021/12/24 04:32:47;;;;;;;3.38;3.08;;;16.00;41.50;;;;;;5034993;28;20283;-66
2021/12/24 04:35:33;;;;;;;3.25;2.88;;;16.00;41.50;;;;;;5034849;28;20197;-67
2021/12/24 04:38:11;;;;;;;2.85;2.65;;;16.00;41.50;;;;;;5018632;28;20195;-69
2021/12/24 04:51:45;;;;;;;2.72;2.53;;;16.10;41.20;;;;;;5027227;28;20582;-69
2021/12/24 05:02:58;;;;;;;2.85;2.65;;;16.20;41.10;;;;;;5025360;28;20180;-67
2021/12/24 05:05:37;;;;;;;2.90;2.70;;;16.20;41.00;;;;;;5040591;28;20218;-66
2021/12/24 05:08:16;;;;;;;2.80;2.60;;;16.20;41.00;;;;;;5040668;28;20256;-67
2021/12/24 05:10:44;;;;;;;3.58;3.28;;;16.20;40.90;;;;;;5023934;28;20204;-68
2021/12/24 05:13:14;;;;;;;3.10;2.80;;;16.30;41.00;;;;;;5039772;28;20204;-67
2021/12/24 05:16:16;;;;;;;3.10;2.80;;;16.30;40.80;;;;;;5029360;28;20228;-68
2021/12/24 05:21:32;;;;;;;3.67;2.95;;;16.30;40.80;;;;;;5038844;28;20580;-68
2021/12/24 05:22:07;;;;;;;3.45;3.10;;;16.30;40.60;;;;;;5041247;28;20200;-66
2021/12/24 05:24:38;;;;;;;2.63;2.40;;;16.40;40.70;;;;;;5023081;28;20274;-69
2021/12/24 05:27:05;;;;;;;2.75;2.55;;;16.40;40.60;;;;;;5022900;28;20259;-67
2021/12/24 05:29:33;;;;;;;2.80;2.60;;;16.40;40.60;;;;;;5023010;28;20204;-70
2021/12/24 05:32:01;;;;;;;2.85;2.63;;;16.40;40.50;;;;;;5037235;28;20218;-68
2021/12/24 05:34:29;;;;;;;4.53;2.78;;;16.50;40.50;;;;;;5034424;28;20208;-67
2021/12/24 05:36:56;;;;;;;3.13;2.58;;;16.50;40.50;;;;;;5033659;28;20684;-68
2021/12/24 05:39:24;;;;;;;3.42;2.95;;;16.50;40.40;;;;;;5033891;28;20196;-69
2021/12/24 05:41:52;;;;;;;2.85;2.65;;;16.60;40.40;;;;;;5033696;28;20192;-67
2021/12/24 05:44:20;;;;;;;2.97;2.75;;;16.60;40.60;;;;;;5035003;28;20634;-68
2021/12/24 05:46:56;;;;;;;3.67;2.70;;;16.60;40.70;;;;;;5033839;28;20303;-68
2021/12/24 05:49:41;;;;;;;3.00;2.70;;;16.60;40.80;;;;;;5033939;28;20192;-66
2021/12/24 05:52:27;;;;;;;2.70;2.50;;;16.70;40.70;;;;;;5035167;28;20219;-65
2021/12/24 05:55:17;;;;;;;3.70;2.70;;;16.70;40.90;;;;;;5024077;28;20672;-65
2021/12/24 05:57:46;;;;;;;2.60;2.40;;;16.70;40.90;;;;;;5033696;28;20624;-64
2021/12/24 06:00:14;;;;;;;2.50;2.30;;;16.80;41.00;;;;;;5033708;28;20200;-68
2021/12/24 06:02:43;;;;;;;2.80;2.60;;;16.80;41.00;;;;;;5033534;28;20196;-65
2021/12/24 06:05:11;;;;;;;2.72;2.45;;;16.80;41.00;;;;;;5034911;28;20246;-65
2021/12/24 06:07:38;;;;;;;3.00;2.72;;;16.90;41.00;;;;;;5033507;28;20226;-66
2021/12/24 06:10:06;;;;;;;2.90;2.70;;;16.80;41.20;;;;;;5034602;28;20191;-66
2021/12/24 06:12:33;;;;;;;3.50;2.60;;;16.90;41.70;;;;;;5016618;28;20222;-66
2021/12/24 06:15:04;;;;;;;2.67;2.47;;;16.90;41.10;;;;;;5034647;28;20291;-66
2021/12/24 06:17:33;;;;;;;2.65;2.45;;;17.00;41.20;;;;;;5034155;28;20208;-65
2021/12/24 06:20:00;;;;;;;2.60;2.40;;;16.90;41.20;;;;;;5033255;28;20254;-65
2021/12/24 06:22:28;;;;;;;2.88;2.67;;;17.00;41.00;;;;;;5034316;28;20184;-68
2021/12/24 06:24:55;;;;;;;2.83;2.50;;;17.00;40.80;;;;;;5034708;28;20192;-66
2021/12/24 06:27:23;;;;;;;2.75;2.55;;;17.00;41.00;;;;;;5016490;28;20270;-66
2021/12/24 06:29:49;;;;;;;2.92;2.63;;;17.00;41.00;;;;;;5016835;28;20191;-66
2021/12/24 06:32:16;;;;;;;2.92;2.67;;;17.00;41.00;;;;;;5033007;28;20219;-67
2021/12/24 06:34:43;;;;;;;2.80;2.60;;;17.00;40.80;;;;;;5033255;28;20199;-68
2021/12/24 06:37:10;;;;;;;2.70;2.40;;;17.10;40.70;;;;;;5032726;28;20274;-66
2021/12/24 06:39:39;;;;;;;3.58;2.63;;;17.10;40.70;;;;;;5034399;28;20184;-67
2021/12/24 06:42:07;;;;;;;3.00;2.35;;;17.10;40.60;;;;;;5032610;28;20200;-66
2021/12/24 06:44:34;;;;;;;3.10;2.50;;;17.20;40.60;;;;;;5034174;28;20188;-68
2021/12/24 06:47:03;;;;;;;2.63;2.42;;;17.20;40.70;;;;;;5034492;28;20227;-65
2021/12/24 06:49:30;;;;;;;2.70;2.50;;;17.20;40.50;;;;;;5033099;28;20223;-64
2021/12/24 06:51:58;;;;;;;2.70;2.50;;;17.20;41.10;;;;;;5017086;28;20232;-67
2021/12/24 06:54:25;;;;;;;2.65;2.38;;;17.20;40.40;;;;;;5034731;28;20188;-66
2021/12/24 06:56:54;;;;;;;2.83;2.60;;;17.20;40.40;;;;;;5032987;28;20246;-64
2021/12/24 06:59:22;;;;;;;2.60;2.40;;;17.20;40.40;;;;;;5016280;28;20680;-66
2021/12/24 07:01:50;;;;;;;2.50;2.30;;;17.30;40.50;;;;;;5016040;28;20188;-68
2021/12/24 07:04:17;;;;;;;2.83;2.63;;;17.30;41.10;;;;;;5015905;28;20196;-66
2021/12/24 07:06:45;;;;;;;2.40;2.13;;;17.30;40.50;;;;;;5032342;28;20215;-64
2021/12/24 07:09:13;;;;;;;2.63;2.42;;;17.30;40.50;;;;;;5032427;28;20196;-65
2021/12/24 07:11:40;;;;;;;3.25;2.55;;;17.30;40.50;;;;;;5015773;28;20264;-68
2021/12/24 07:14:09;;;;;;;3.40;2.42;;;17.30;40.60;;;;;;5032354;28;20286;-65
2021/12/24 07:16:36;;;;;;;2.40;2.20;;;17.30;40.60;;;;;;5015566;28;20224;-65
2021/12/24 07:19:03;;;;;;;2.60;2.40;;;17.30;40.60;;;;;;5033241;28;20195;-66
2021/12/24 07:21:30;;;;;;;3.08;2.78;;;17.30;40.60;;;;;;5031927;28;20286;-66
2021/12/24 07:23:57;;;;;;;3.03;2.63;;;17.30;40.60;;;;;;5031995;28;20608;-66
2021/12/24 07:26:24;;;;;;;2.90;2.70;;;17.30;40.50;;;;;;5032915;28;20218;-66
2021/12/24 07:28:52;;;;;;;3.00;2.17;;;17.30;40.60;;;;;;5015215;28;20286;-68
2021/12/24 07:31:20;;;;;;;2.80;2.60;;;17.40;40.70;;;;;;5031663;28;20219;-65
2021/12/24 07:33:48;;;;;;;2.70;2.50;;;17.40;40.70;;;;;;5015106;28;20207;-66
2021/12/24 07:36:15;;;;;;;2.63;2.42;;;17.40;41.30;;;;;;5031897;28;20228;-67
2021/12/24 07:38:42;;;;;;;2.80;2.60;;;17.40;40.70;;;;;;5015697;28;20196;-68
2021/12/24 07:41:09;;;;;;;2.70;2.45;;;17.40;40.80;;;;;;5032157;28;20199;-64
2021/12/24 07:43:37;;;;;;;2.63;2.42;;;17.40;40.70;;;;;;5033801;28;20188;-67
2021/12/24 07:46:04;;;;;;;2.72;2.47;;;17.40;40.70;;;;;;5031989;28;20270;-67
2021/12/24 07:48:43;;;;;;;3.10;2.80;;;17.40;40.70;;;;;;5031820;28;20230;-67
2021/12/24 07:54:00;;;;;;;2.55;2.40;;;17.50;40.70;;;;;;5033030;28;20183;-66
2021/12/24 07:56:28;;;;;;;2.53;2.28;;;17.50;40.60;;;;;;5031604;28;20711;-68
2021/12/24 07:58:55;;;;;;;3.10;2.80;;;17.50;40.50;;;;;;5032033;28;20286;-65
2021/12/24 08:01:23;;;;;;;2.80;2.60;;;17.60;40.60;;;;;;5015364;28;20192;-65
2021/12/24 08:03:53;;;;;;;2.72;2.53;;;17.60;40.60;;;;;;5033458;28;20203;-66
2021/12/24 08:06:21;;;;;;;2.75;2.55;;;17.60;40.60;;;;;;5018821;28;20226;-65
2021/12/24 08:08:48;;;;;;;3.65;2.95;;;17.60;40.50;;;;;;5036714;28;20192;-67
2021/12/24 08:11:15;;;;;;;3.10;2.80;;;17.60;40.50;;;;;;5034993;28;20692;-67
2021/12/24 08:13:43;;;;;;;2.88;2.67;;;17.60;40.40;;;;;;5019190;28;20266;-66
2021/12/24 08:16:10;;;;;;;2.92;2.63;;;17.70;40.40;;;;;;5035314;28;20228;-68
2021/12/24 08:18:37;;;;;;;3.28;2.65;;;17.60;40.30;;;;;;5035163;28;20220;-66
2021/12/24 08:21:06;;;;;;;2.70;2.40;;;17.70;40.30;;;;;;5018325;28;20200;-68
2021/12/24 08:23:33;;;;;;;2.97;2.40;;;17.70;40.20;;;;;;5018200;28;20569;-66
2021/12/24 08:26:01;;;;;;;3.47;2.40;;;17.70;40.20;;;;;;5018413;28;20598;-68
2021/12/24 08:28:29;;;;;;;2.90;2.47;;;17.70;40.10;;;;;;5018185;28;20196;-66
2021/12/24 08:30:57;;;;;;;3.22;3.03;;;17.80;40.20;;;;;;5035936;28;20196;-66
2021/12/24 08:33:24;;;;;;;3.17;2.95;;;17.70;40.00;;;;;;5018321;28;20192;-66
2021/12/24 08:35:51;;;;;;;3.20;3.00;;;17.80;40.10;;;;;;5036005;28;20266;-66
2021/12/24 08:38:20;;;;;;;2.80;2.60;;;17.80;40.00;;;;;;5018228;28;20200;-64
2021/12/24 08:40:48;;;;;;;2.50;2.35;;;17.70;39.90;;;;;;5034678;28;20246;-65
2021/12/24 08:43:14;;;;;;;3.05;2.50;;;17.80;40.00;;;;;;5017869;28;20208;-67
2021/12/24 08:45:41;;;;;;;3.35;3.05;;;17.80;40.00;;;;;;5034151;28;20216;-66
2021/12/24 08:48:08;;;;;;;4.75;4.35;;;17.80;40.00;;;;;;5035575;28;20188;-64
2021/12/24 08:50:36;;;;;;;5.32;4.93;;;17.80;39.90;;;;;;5017839;28;20216;-65
2021/12/24 08:53:03;;;;;;;4.18;3.88;;;17.80;40.00;;;;;;5034192;28;20728;-67
2021/12/24 08:55:31;;;;;;;4.10;3.80;;;17.90;40.00;;;;;;5017868;28;20200;-65
2021/12/24 08:57:59;;;;;;;4.15;3.85;;;17.90;40.00;;;;;;5017808;28;20570;-65
2021/12/24 09:00:26;;;;;;;3.80;3.20;;;17.80;40.00;;;;;;5017676;28;20208;-65
2021/12/24 09:02:53;;;;;;;3.47;3.17;;;17.80;40.00;;;;;;5017667;28;20250;-68
2021/12/24 09:05:20;;;;;;;2.90;2.70;;;17.90;40.10;;;;;;5035332;28;20199;-67
2021/12/24 09:07:48;;;;;;;3.22;2.80;;;17.80;40.00;;;;;;5018079;28;20664;-64
2021/12/24 09:10:15;;;;;;;2.92;2.72;;;17.90;40.10;;;;;;5017594;28;20204;-64
2021/12/24 09:12:44;;;;;;;2.70;2.50;;;17.80;40.40;;;;;;5017309;28;20220;-66
2021/12/24 09:15:11;;;;;;;2.33;2.22;;;17.80;40.10;;;;;;5033333;28;20197;-65
2021/12/24 09:17:43;;;;;;;3.25;2.95;;;17.80;40.10;;;;;;5035469;28;20294;-64
2021/12/24 09:20:12;;;;;;;3.17;2.55;;;17.80;40.20;;;;;;5035184;28;20706;-66
2021/12/24 09:22:40;;;;;;;3.03;2.83;;;17.90;40.30;;;;;;5017388;28;20200;-66
2021/12/24 09:25:08;;;;;;;3.45;2.50;;;17.80;40.20;;;;;;5035081;28;20197;-65
2021/12/24 09:27:35;;;;;;;2.50;2.30;;;17.90;40.20;;;;;;5017008;28;20247;-68
2021/12/24 09:30:04;;;;;;;2.30;2.20;;;17.90;40.30;;;;;;5033712;28;20199;-64
2021/12/24 09:32:32;;;;;;;2.60;2.40;;;17.90;40.30;;;;;;5034930;28;20723;-66
2021/12/24 09:35:00;;;;;;;3.20;2.90;;;17.90;40.20;;;;;;5017094;28;20200;-68
2021/12/24 09:37:26;;;;;;;2.63;2.42;;;17.90;40.30;;;;;;5033721;28;20223;-68
2021/12/24 09:39:53;;;;;;;2.63;2.42;;;17.90;40.70;;;;;;5034818;28;20192;-64
2021/12/24 09:42:20;;;;;;;2.90;2.70;;;17.90;40.40;;;;;;5033477;28;20223;-65
2021/12/24 09:44:48;;;;;;;2.65;2.45;;;17.90;40.40;;;;;;5034691;28;20266;-68
2021/12/24 09:47:16;;;;;;;3.05;2.85;;;18.00;40.50;;;;;;5017227;28;20306;-66
2021/12/24 09:49:43;;;;;;;2.72;2.53;;;17.90;40.40;;;;;;5033739;28;20234;-65
2021/12/24 09:52:10;;;;;;;3.28;2.83;;;18.00;40.50;;;;;;5033629;28;20223;-66
2021/12/24 09:54:37;;;;;;;3.00;2.70;;;18.00;41.10;;;;;;5017402;28;20206;-67
2021/12/24 09:57:05;;;;;;;2.70;2.50;;;18.00;40.50;;;;;;5033790;28;20220;-65
2021/12/24 09:59:32;;;;;;;3.53;2.60;;;18.00;40.50;;;;;;5017887;28;20204;-64
2021/12/24 10:02:00;;;;;;;2.63;2.42;;;18.00;40.60;;;;;;5017235;28;20207;-64
2021/12/24 10:04:30;;;;;;;2.92;2.72;;;18.00;40.60;;;;;;5035197;28;20200;-68
2021/12/24 10:07:00;;;;;;;2.92;2.70;;;18.10;40.70;;;;;;5018195;28;20657;-66
2021/12/24 10:09:31;;;;;;;2.92;2.72;;;18.10;40.70;;;;;;5019016;28;20200;-66
2021/12/24 10:12:00;;;;;;;2.95;2.75;;;18.10;40.70;;;;;;5034147;28;20216;-66
2021/12/24 10:14:31;;;;;;;2.65;2.40;;;18.10;40.70;;;;;;5033899;28;20286;-66
2021/12/24 10:16:58;;;;;;;2.60;2.40;;;18.10;40.40;;;;;;5018014;28;20224;-66
2021/12/24 10:19:25;;;;;;;2.72;2.53;;;18.10;40.70;;;;;;5018742;28;20196;-64
2021/12/24 10:21:59;;;;;;;2.90;2.60;;;18.10;40.60;;;;;;5019130;28;20223;-68
2021/12/24 10:24:27;;;;;;;3.17;2.88;;;18.10;40.50;;;;;;5035906;28;20273;-64
2021/12/24 10:26:55;;;;;;;2.80;2.60;;;18.10;40.60;;;;;;5033200;28;20220;-65
2021/12/24 10:29:28;;;;;;;2.88;2.67;;;18.20;40.40;;;;;;5034967;28;20196;-66
2021/12/24 10:31:57;;;;;;;2.60;2.40;;;18.20;40.50;;;;;;5017831;28;20196;-66
2021/12/24 10:34:25;;;;;;;3.10;2.80;;;18.20;40.60;;;;;;5017989;28;20192;-68
2021/12/24 10:37:08;;;;;;;3.38;2.85;;;18.20;40.60;;;;;;5035302;28;20230;-67
2021/12/24 10:39:39;;;;;;;3.00;2.80;;;18.20;40.40;;;;;;5034285;28;20315;-68
2021/12/24 10:42:12;;;;;;;2.90;2.70;;;18.20;40.50;;;;;;5032651;28;20199;-66
2021/12/24 10:44:40;;;;;;;3.08;2.83;;;18.20;40.50;;;;;;5032251;28;20212;-65
2021/12/24 10:47:10;;;;;;;2.97;2.78;;;18.20;40.40;;;;;;5016026;28;20593;-66
2021/12/24 10:52:46;;;;;;;2.80;2.50;;;18.20;40.50;;;;;;5028978;28;20281;-66
2021/12/24 10:55:16;;;;;;;2.85;2.60;;;18.20;40.30;;;;;;5033504;28;20196;-68
2021/12/24 10:57:44;;;;;;;2.70;2.50;;;18.30;40.40;;;;;;5032374;28;20234;-65
2021/12/24 11:00:17;;;;;;;2.90;2.70;;;18.30;40.50;;;;;;5032039;28;20363;-65
2021/12/24 11:02:45;;;;;;;3.05;2.80;;;18.30;40.50;;;;;;5015463;28;20560;-66
2021/12/24 11:05:34;;;;;;;2.90;2.70;;;18.30;40.40;;;;;;5033249;28;20188;-66
2021/12/24 11:08:04;;;;;;;2.95;2.75;;;18.30;40.20;;;;;;5031481;28;20192;-66
2021/12/24 11:10:32;;;;;;;2.83;2.55;;;18.30;39.90;;;;;;5031774;28;20192;-66
2021/12/24 11:13:03;;;;;;;2.58;2.38;;;18.30;40.30;;;;;;5031580;28;20264;-67
2021/12/24 11:15:32;;;;;;;2.80;2.60;;;18.30;39.90;;;;;;5032398;28;20258;-66
2021/12/24 11:18:00;;;;;;;2.67;2.47;;;18.30;40.30;;;;;;5015039;28;20659;-66
2021/12/24 11:20:28;;;;;;;3.15;2.78;;;18.30;40.30;;;;;;5031420;28;20247;-66
2021/12/24 11:23:02;;;;;;;2.70;2.50;;;18.30;40.30;;;;;;5014601;28;20264;-66
2021/12/24 11:25:30;;;;;;;2.58;2.38;;;18.40;40.10;;;;;;5014708;28;20188;-68
2021/12/24 11:27:57;;;;;;;2.70;2.50;;;18.30;40.30;;;;;;5031134;28;20561;-64
2021/12/24 11:30:25;;;;;;;2.60;2.40;;;18.30;40.30;;;;;;5032434;28;20207;-67
2021/12/24 11:32:52;;;;;;;2.38;2.20;;;18.30;40.30;;;;;;5032400;28;20218;-67
2021/12/24 11:35:19;;;;;;;2.58;2.38;;;18.30;40.00;;;;;;5031069;28;20211;-67
2021/12/24 11:37:47;;;;;;;3.20;2.60;;;18.40;40.50;;;;;;5032059;28;20200;-65
2021/12/24 11:40:16;;;;;;;2.78;2.50;;;18.30;40.50;;;;;;5021117;28;20242;-66
2021/12/24 11:42:43;;;;;;;2.45;2.25;;;18.30;40.40;;;;;;5037611;28;20707;-68
2021/12/24 11:45:11;;;;;;;2.63;2.42;;;18.30;40.40;;;;;;5039062;28;20188;-66
2021/12/24 11:47:38;;;;;;;2.60;2.40;;;18.40;41.10;;;;;;5038821;28;20214;-66
2021/12/24 11:50:06;;;;;;;2.60;2.40;;;18.30;40.50;;;;;;5037555;28;20206;-67
2021/12/24 11:52:33;;;;;;;2.70;2.50;;;18.30;40.30;;;;;;5021112;28;20222;-66
2021/12/24 11:55:00;;;;;;;2.65;2.45;;;18.40;40.40;;;;;;5037582;28;20227;-66
2021/12/24 11:57:28;;;;;;;3.10;2.78;;;18.40;40.30;;;;;;5037658;28;20218;-65
2021/12/24 11:59:55;;;;;;;2.65;2.45;;;18.40;40.00;;;;;;5021501;28;20195;-67
2021/12/24 12:02:36;;;;;;;2.65;2.45;;;18.40;40.20;;;;;;5021418;28;20200;-65
2021/12/24 12:05:17;;;;;;;3.10;2.90;;;18.40;40.40;;;;;;5024788;28;20202;-65
2021/12/24 12:07:45;;;;;;;2.80;2.60;;;18.50;40.20;;;;;;5041790;28;20199;-68
2021/12/24 12:10:12;;;;;;;2.63;2.42;;;18.50;40.50;;;;;;5058454;28;20188;-66
2021/12/24 12:12:41;;;;;;;2.88;2.58;;;18.50;40.70;;;;;;5040261;28;20699;-67
2021/12/24 12:15:28;;;;;;;2.53;2.33;;;18.50;41.00;;;;;;5040388;28;20561;-65
2021/12/24 12:17:58;;;;;;;2.40;2.20;;;18.50;40.90;;;;;;5057040;28;20175;-64
2021/12/24 12:20:43;;;;;;;3.33;2.50;;;18.50;40.80;;;;;;5038980;28;20195;-68
2021/12/24 12:23:16;;;;;;;2.58;2.38;;;18.50;40.70;;;;;;5040070;28;20562;-65
2021/12/24 12:25:43;;;;;;;2.25;2.10;;;18.50;41.00;;;;;;5040759;28;20268;-66
2021/12/24 12:28:16;;;;;;;2.10;2.00;;;18.60;40.80;;;;;;5040948;28;20191;-66
2021/12/24 12:30:49;;;;;;;2.22;2.13;;;18.60;40.70;;;;;;5041665;28;20560;-68
2021/12/24 12:33:17;;;;;;;2.53;2.33;;;18.60;39.80;;;;;;5040842;28;20319;-64
2021/12/24 12:35:46;;;;;;;2.33;2.23;;;18.60;40.50;;;;;;5040180;28;20458;-66
2021/12/24 12:38:30;;;;;;;3.17;2.40;;;18.60;40.50;;;;;;5040884;28;20206;-66
2021/12/24 12:41:22;;;;;;;2.50;2.30;;;18.60;40.50;;;;;;5040712;28;20662;-65
2021/12/24 12:43:51;;;;;;;2.40;2.20;;;18.60;40.60;;;;;;5040986;28;20527;-65
2021/12/24 12:46:20;;;;;;;3.22;2.63;;;18.60;40.80;;;;;;5058868;28;20211;-66
2021/12/24 12:48:50;;;;;;;3.65;2.42;;;18.60;41.00;;;;;;5041030;28;20210;-67
2021/12/24 12:51:19;;;;;;;2.63;2.42;;;18.60;40.90;;;;;;5036477;28;20213;-67
2021/12/24 12:53:47;;;;;;;2.63;2.42;;;18.70;41.10;;;;;;5037088;28;20396;-67
2021/12/24 12:56:16;;;;;;;2.83;2.50;;;18.70;41.50;;;;;;5054971;28;20211;-66
2021/12/24 12:58:44;;;;;;;3.50;2.60;;;18.70;42.20;;;;;;5037390;28;20615;-66
2021/12/24 13:01:16;;;;;;;2.90;2.60;;;18.80;41.60;;;;;;5037281;28;20673;-66
2021/12/24 13:04:11;;;;;;;2.70;2.40;;;18.80;41.40;;;;;;5055272;28;20624;-63
2021/12/24 13:06:53;;;;;;;3.67;2.80;;;18.80;41.80;;;;;;5051755;28;20223;-67
2021/12/24 13:09:22;;;;;;;4.40;3.00;;;18.90;42.30;;;;;;5052523;28;20199;-65
2021/12/24 13:11:51;;;;;;;3.25;2.95;;;18.90;41.70;;;;;;5037165;28;20203;-64
2021/12/24 13:14:18;;;;;;;3.45;2.95;;;18.90;41.50;;;;;;5036976;28;20608;-66
2021/12/24 13:16:49;;;;;;;3.85;2.40;;;19.00;42.20;;;;;;5055121;28;20215;-66
2021/12/24 13:19:26;;;;;;;3.63;2.92;;;19.00;42.10;;;;;;5055102;28;20176;-68
2021/12/24 13:24:40;;;;;;;3.13;2.53;;;19.10;42.60;;;;;;5055357;28;20171;-67
2021/12/24 13:27:08;;;;;;;3.75;2.90;;;19.20;42.70;;;;;;5037376;28;20561;-66
2021/12/24 13:29:35;;;;;;;3.58;2.80;;;19.20;42.70;;;;;;5036950;28;20511;-64
2021/12/24 13:32:05;;;;;;;3.45;2.90;;;19.20;42.60;;;;;;5036929;28;20210;-67
2021/12/24 13:34:32;;;;;;;3.20;2.92;;;19.30;43.00;;;;;;5036525;28;20244;-68
2021/12/24 13:37:01;;;;;;;3.03;2.70;;;19.30;42.80;;;;;;5054537;28;20651;-65
2021/12/24 13:39:28;;;;;;;3.42;2.72;;;19.30;42.90;;;;;;5054632;28;20188;-66
2021/12/24 13:42:02;;;;;;;3.50;2.42;;;19.30;42.50;;;;;;5054234;28;20199;-66
2021/12/24 13:44:30;;;;;;;2.95;2.75;;;19.30;42.70;;;;;;5036477;28;20214;-66
2021/12/24 13:47:03;;;;;;;2.70;2.50;;;19.30;42.60;;;;;;5036283;28;20212;-66
2021/12/24 13:50:10;;;;;;;3.13;2.63;;;19.30;42.40;;;;;;5036426;28;20272;-68
2021/12/24 13:55:21;;;;;;;3.28;2.80;;;19.20;42.30;;;;;;5035884;28;20199;-68
2021/12/24 13:57:52;;;;;;;2.70;2.50;;;19.20;42.50;;;;;;5054555;28;20501;-68
2021/12/24 14:00:20;;;;;;;4.18;2.75;;;19.20;42.60;;;;;;5036102;28;20205;-68
2021/12/24 14:02:53;;;;;;;2.53;2.33;;;19.20;42.90;;;;;;5035842;28;20199;-67
2021/12/24 14:05:20;;;;;;;2.60;2.40;;;19.20;42.20;;;;;;5036184;28;20187;-65
2021/12/24 14:07:47;;;;;;;2.70;2.50;;;19.10;41.70;;;;;;5035884;28;20217;-66
2021/12/24 14:10:21;;;;;;;2.55;2.35;;;19.10;41.60;;;;;;5035853;28;20601;-66
2021/12/24 14:12:48;;;;;;;3.58;2.10;;;19.10;41.60;;;;;;5035875;28;20230;-66
2021/12/24 14:15:21;;;;;;;3.05;2.40;;;19.10;41.60;;;;;;5035838;28;20202;-69
2021/12/24 14:18:09;;;;;;;2.55;2.35;;;19.10;41.40;;;;;;5035794;28;20189;-67
2021/12/24 14:21:44;;;;;;;2.67;2.30;;;19.00;41.30;;;;;;5053739;28;20175;-66
2021/12/24 14:23:37;;;;;;;3.47;2.60;;;19.00;41.30;;;;;;5035798;28;20194;-66